Terminal Aerodrome Forecast
Issued by NWS Buffalo, NY

Home | Current Version | Previous Version | Text Only | Print | Product List | Glossary On
Versions: 1 2 3 4 5 6 7 8 9 10 11 12 13 14 15 16 17 18 19 20 21 22 23 24 25 26 27 28
111
FTUS41 KBUF 230225 AAB
TAFBUF
TAF AMD
KBUF 230225Z 2302/2324 28005KT 2SM BR OVC002
     FM230800 VRB03KT 3SM BR SCT005
     FM230900 VRB03KT 1SM BR BKN002
     FM231300 24010KT P6SM SCT015
     FM231700 24012KT P6SM SKC=

USA.gov is the U.S. government's official web portal to all federal, state and local government web resources and services.